Time;durP1;ratioP1;P1;durP2;ratioP2;P2;SDS_P1;SDS_P2;PMS_P1;PMS_P2;Temp;Humidity;BMP_temperature;BMP_pressure;BME280_temperature;BME280_humidity;BME280_pressure;Samples;Min_cycle;Max_cycle;Signal;HPM_P1;HPM_P2
2022/03/12 00:00:50;;;;;;;;;6.00;5.00;;;;;8.62;100.00;100897.91;5060945;28;44797;-84
2022/03/12 00:03:17;;;;;;;;;7.00;5.25;;;;;8.57;100.00;100904.41;5058944;28;45482;-84
2022/03/12 00:06:01;;;;;;;;;4.00;4.00;;;;;8.52;100.00;100914.41;5059464;28;45433;-84
2022/03/12 00:08:40;;;;;;;;;3.25;3.25;;;;;8.44;100.00;100917.47;5061220;28;45055;-84
2022/03/12 00:11:05;;;;;;;;;6.40;4.00;;;;;8.41;100.00;100918.50;5065708;28;45275;-84
2022/03/12 00:13:32;;;;;;;;;6.00;6.00;;;;;8.37;100.00;100924.91;5065035;28;44764;-82
2022/03/12 00:15:58;;;;;;;;;3.00;3.00;;;;;8.36;100.00;100922.28;5076591;27;44867;-84
2022/03/12 00:18:25;;;;;;;;;6.75;5.00;;;;;8.31;100.00;100925.19;5085981;27;45509;-84
2022/03/12 00:20:50;;;;;;;;;4.00;4.00;;;;;8.32;100.00;100937.50;5083882;27;45453;-84
2022/03/12 00:23:20;;;;;;;;;3.75;3.75;;;;;8.31;100.00;100930.47;5079397;27;44803;-84
2022/03/12 00:25:48;;;;;;;;;4.25;3.00;;;;;8.28;100.00;100933.31;5077223;28;45496;-84
2022/03/12 00:28:18;;;;;;;;;5.00;4.00;;;;;8.27;100.00;100939.53;5077146;27;46139;-83
2022/03/12 00:30:45;;;;;;;;;4.50;4.50;;;;;8.27;100.00;100941.31;5078295;27;44669;-85
2022/03/12 00:33:12;;;;;;;;;4.00;4.00;;;;;8.30;100.00;100947.28;5078752;27;45146;-84
2022/03/12 00:35:37;;;;;;;;;5.75;4.75;;;;;8.37;100.00;100946.09;5078261;27;44803;-85
2022/03/12 00:38:03;;;;;;;;;5.75;4.50;;;;;8.43;100.00;100948.38;5078893;27;45447;-84
2022/03/12 00:40:29;;;;;;;;;4.00;3.00;;;;;8.51;100.00;100945.34;5079769;27;44710;-82
2022/03/12 00:42:55;;;;;;;;;6.00;5.00;;;;;8.58;100.00;100943.19;5084374;27;44803;-84
2022/03/12 00:45:20;;;;;;;;;3.00;3.00;;;;;8.66;100.00;100948.91;5074638;27;44804;-83
2022/03/12 00:47:48;;;;;;;;;8.25;5.00;;;;;8.70;100.00;100948.66;5074079;27;45074;-83
2022/03/12 00:50:13;;;;;;;;;4.00;4.00;;;;;8.75;100.00;100954.56;5077976;27;44935;-82
2022/03/12 00:52:38;;;;;;;;;4.00;4.00;;;;;8.80;100.00;100951.66;5074796;27;45530;-83
2022/03/12 00:55:04;;;;;;;;;5.00;3.00;;;;;8.85;100.00;100965.50;5057753;28;44900;-86
2022/03/12 00:57:30;;;;;;;;;5.00;4.00;;;;;8.90;100.00;100967.88;5062607;28;44979;-83
2022/03/12 00:59:55;;;;;;;;;3.75;3.75;;;;;8.92;100.00;100977.44;5059623;27;45096;-84
2022/03/12 01:02:21;;;;;;;;;4.25;4.25;;;;;8.97;100.00;100971.88;5057877;28;45420;-83
2022/03/12 01:04:46;;;;;;;;;3.00;3.00;;;;;8.98;100.00;100979.75;5060723;28;45624;-83
2022/03/12 01:07:12;;;;;;;;;3.50;3.00;;;;;9.02;100.00;100972.47;5061137;27;45323;-83
2022/03/12 01:09:39;;;;;;;;;4.50;4.50;;;;;9.05;100.00;100972.31;5064891;28;45450;-83
2022/03/12 01:12:06;;;;;;;;;7.00;3.00;;;;;9.04;100.00;100985.63;5069034;28;44796;-82
2022/03/12 01:14:31;;;;;;;;;5.50;3.00;;;;;9.08;100.00;100981.88;5069842;28;44980;-82
2022/03/12 01:17:00;;;;;;;;;4.00;4.00;;;;;9.04;100.00;100986.47;5065924;27;45127;-82
2022/03/12 01:19:26;;;;;;;;;6.00;4.00;;;;;9.07;100.00;100990.78;5056394;28;44843;-83
2022/03/12 01:21:52;;;;;;;;;4.75;4.75;;;;;9.08;100.00;100988.03;5057545;27;45403;-83
2022/03/12 01:24:18;;;;;;;;;4.50;3.25;;;;;9.08;100.00;100993.31;5057261;28;45339;-84
2022/03/12 01:26:44;;;;;;;;;5.00;3.75;;;;;9.08;100.00;100995.13;5056891;28;45404;-83
2022/03/12 01:29:09;;;;;;;;;3.50;3.50;;;;;9.09;100.00;100991.53;5057139;28;45225;-83
2022/03/12 01:31:36;;;;;;;;;2.50;1.75;;;;;9.09;100.00;100999.47;5056892;28;45350;-83
2022/03/12 01:34:03;;;;;;;;;4.25;4.00;;;;;9.07;100.00;100991.63;5056961;28;45156;-83
2022/03/12 01:36:29;;;;;;;;;4.00;4.00;;;;;9.02;100.00;100986.56;5056752;28;45358;-85
2022/03/12 01:38:58;;;;;;;;;6.75;4.00;;;;;8.97;100.00;100983.34;5056806;28;45455;-83
2022/03/12 01:41:26;;;;;;;;;4.00;4.00;;;;;8.87;100.00;100986.59;5056311;28;45533;-82
2022/03/12 01:43:53;;;;;;;;;4.00;3.25;;;;;8.74;100.00;100987.25;5059348;28;45485;-83
2022/03/12 01:46:29;;;;;;;;;2.50;2.50;;;;;8.64;100.00;100999.31;5068945;28;45242;-82
2022/03/12 01:48:55;;;;;;;;;2.20;2.00;;;;;8.54;100.00;100998.09;5081028;27;44759;-83
2022/03/12 01:51:20;;;;;;;;;3.00;2.60;;;;;8.45;100.00;101002.09;5080031;27;45398;-82
2022/03/12 01:53:46;;;;;;;;;7.00;4.50;;;;;8.37;100.00;101001.66;5078356;27;45394;-82
2022/03/12 01:56:12;;;;;;;;;4.00;4.00;;;;;8.38;100.00;101007.81;5082525;27;45017;-81
2022/03/12 01:58:51;;;;;;;;;5.80;4.40;;;;;8.40;100.00;101019.16;5082027;27;44811;-83
2022/03/12 02:01:18;;;;;;;;;4.50;4.00;;;;;8.44;100.00;101024.22;5084544;27;45754;-83
2022/03/12 02:03:45;;;;;;;;;5.25;5.25;;;;;8.47;100.00;101025.84;5087218;27;45203;-84
2022/03/12 02:06:15;;;;;;;;;4.75;4.75;;;;;8.52;100.00;101028.25;5081525;27;45447;-82
2022/03/12 02:08:40;;;;;;;;;5.40;3.80;;;;;8.53;100.00;101032.63;5077354;28;45249;-82
2022/03/12 02:11:06;;;;;;;;;6.25;5.50;;;;;8.58;100.00;101031.41;5078726;28;44696;-81
2022/03/12 02:13:34;;;;;;;;;6.00;3.50;;;;;8.62;100.00;101030.31;5080167;27;44865;-81
2022/03/12 02:16:08;;;;;;;;;6.25;6.00;;;;;8.64;100.00;101033.72;5075507;27;45304;-82
2022/03/12 02:18:38;;;;;;;;;4.00;3.80;;;;;8.64;100.00;101032.88;5061273;28;45192;-82
2022/03/12 02:21:04;;;;;;;;;4.60;4.00;;;;;8.60;100.00;101031.31;5060047;28;45462;-83
2022/03/12 02:23:29;;;;;;;;;5.75;3.75;;;;;8.59;100.00;101033.13;5058280;27;44802;-82
2022/03/12 02:26:02;;;;;;;;;5.25;5.25;;;;;8.56;100.00;101024.47;5056331;28;45109;-82
2022/03/12 02:28:29;;;;;;;;;5.00;4.00;;;;;8.48;100.00;101025.75;5056676;28;45565;-82
2022/03/12 02:30:55;;;;;;;;;4.00;4.00;;;;;8.40;100.00;101027.97;5058611;28;45578;-82
2022/03/12 02:33:28;;;;;;;;;5.75;5.75;;;;;8.32;100.00;101022.19;5059586;27;44833;-82
2022/03/12 02:35:55;;;;;;;;;6.50;5.00;;;;;8.27;100.00;101031.28;5059496;28;45129;-82
2022/03/12 02:38:21;;;;;;;;;8.40;5.40;;;;;8.25;100.00;101026.09;5059459;28;44735;-84
2022/03/12 02:40:51;;;;;;;;;5.00;4.00;;;;;8.24;100.00;101025.25;5059452;28;45408;-81
2022/03/12 02:43:26;;;;;;;;;6.00;5.00;;;;;8.20;100.00;101015.75;5059571;28;45307;-83
2022/03/12 02:45:57;;;;;;;;;5.25;4.75;;;;;8.21;100.00;101025.38;5075438;27;45216;-82
2022/03/12 02:48:24;;;;;;;;;6.60;5.00;;;;;8.18;100.00;101022.94;5059748;27;44805;-81
2022/03/12 02:50:52;;;;;;;;;4.00;2.50;;;;;8.20;100.00;101025.47;5062948;28;45306;-82
2022/03/12 02:53:18;;;;;;;;;5.00;4.75;;;;;8.19;100.00;101023.78;5087828;27;45516;-82
2022/03/12 02:55:45;;;;;;;;;3.25;3.25;;;;;8.20;100.00;101026.34;5107447;27;45324;-83
2022/03/12 02:58:13;;;;;;;;;5.20;4.80;;;;;8.20;100.00;101031.63;5107036;27;44763;-82
2022/03/12 03:00:39;;;;;;;;;5.80;5.60;;;;;8.24;100.00;101029.69;5106629;27;44898;-82
2022/03/12 03:03:06;;;;;;;;;10.25;5.00;;;;;8.24;100.00;101032.34;5107217;27;45507;-82
2022/03/12 03:05:45;;;;;;;;;11.75;5.00;;;;;8.25;100.00;101037.53;5103574;27;47607;-82
2022/03/12 03:08:13;;;;;;;;;4.80;4.80;;;;;8.29;100.00;101032.09;5103321;27;45463;-84
2022/03/12 03:10:42;;;;;;;;;4.00;4.00;;;;;8.30;100.00;101032.00;5103059;27;45401;-83
2022/03/12 03:13:16;;;;;;;;;4.00;4.00;;;;;8.34;100.00;101035.34;5104339;27;44863;-81
2022/03/12 03:15:49;;;;;;;;;10.50;5.00;;;;;8.33;100.00;101034.50;5089608;27;45123;-82
2022/03/12 03:18:16;;;;;;;;;6.00;5.00;;;;;8.31;100.00;101036.34;5084185;27;44891;-82
2022/03/12 03:20:46;;;;;;;;;5.20;3.80;;;;;8.29;100.00;101030.28;5083293;27;45302;-83
2022/03/12 03:23:12;;;;;;;;;6.50;4.50;;;;;8.21;100.00;101032.47;5082912;27;45154;-83
2022/03/12 03:25:39;;;;;;;;;3.00;3.00;;;;;8.14;100.00;101036.41;5084158;27;45256;-83
2022/03/12 03:28:05;;;;;;;;;4.50;4.50;;;;;8.09;100.00;101038.44;5081927;27;44752;-83
2022/03/12 03:30:38;;;;;;;;;5.50;3.00;;;;;8.04;100.00;101035.16;5078809;27;44792;-81
2022/03/12 03:33:12;;;;;;;;;4.50;3.50;;;;;7.95;100.00;101032.03;5079631;27;45292;-84
2022/03/12 03:35:39;;;;;;;;;4.25;4.25;;;;;7.91;100.00;101035.78;5080166;27;46136;-84
2022/03/12 03:38:09;;;;;;;;;7.80;4.40;;;;;7.88;100.00;101045.66;5079177;27;45251;-83
2022/03/12 03:40:35;;;;;;;;;4.00;4.00;;;;;7.83;100.00;101035.34;5079690;27;44769;-82
2022/03/12 03:43:00;;;;;;;;;5.25;4.00;;;;;7.81;100.00;101045.13;5077694;27;45414;-83
2022/03/12 03:45:28;;;;;;;;;4.00;4.00;;;;;7.79;100.00;101056.72;5079856;27;46768;-82
2022/03/12 03:47:55;;;;;;;;;5.25;4.25;;;;;7.78;100.00;101052.34;5065976;28;44742;-82
2022/03/12 03:50:25;;;;;;;;;6.50;4.25;;;;;7.75;100.00;101052.50;5061217;28;44762;-84
2022/03/12 03:53:04;;;;;;;;;5.00;4.00;;;;;7.72;100.00;101061.44;5063618;27;45583;-84
2022/03/12 03:55:33;;;;;;;;;5.25;4.75;;;;;7.72;100.00;101061.44;5078670;27;45419;-83
2022/03/12 03:58:00;;;;;;;;;8.60;4.00;;;;;7.70;100.00;101064.19;5077889;27;44842;-83
2022/03/12 04:00:27;;;;;;;;;4.00;4.00;;;;;7.69;100.00;101059.81;5081686;28;45223;-82
2022/03/12 04:03:04;;;;;;;;;4.50;3.00;;;;;7.64;100.00;101064.47;5082611;27;44758;-84
2022/03/12 04:05:32;;;;;;;;;2.75;2.75;;;;;7.59;100.00;101052.41;5080339;27;45379;-82
2022/03/12 04:07:57;;;;;;;;;6.25;4.50;;;;;7.54;100.00;101059.69;5081774;27;45719;-82
2022/03/12 04:10:24;;;;;;;;;5.00;3.00;;;;;7.50;100.00;101052.88;5083837;27;44933;-81
2022/03/12 04:12:49;;;;;;;;;4.75;4.75;;;;;7.44;100.00;101052.22;5077474;27;44918;-83
2022/03/12 04:15:15;;;;;;;;;8.00;6.00;;;;;7.40;100.00;101053.31;5076488;27;45228;-82
2022/03/12 04:17:41;;;;;;;;;6.00;4.00;;;;;7.38;100.00;101054.31;5058559;28;44821;-83
2022/03/12 04:20:09;;;;;;;;;4.50;3.50;;;;;7.33;100.00;101066.91;5058194;28;45327;-83
2022/03/12 04:22:38;;;;;;;;;6.50;5.50;;;;;7.29;100.00;101074.09;5058515;28;44771;-82
2022/03/12 04:25:04;;;;;;;;;7.25;4.00;;;;;7.25;100.00;101069.03;5057736;28;45528;-81
2022/03/12 04:27:30;;;;;;;;;6.40;4.60;;;;;7.18;100.00;101069.34;5057416;28;44886;-83
2022/03/12 04:29:56;;;;;;;;;5.00;4.25;;;;;7.12;100.00;101069.63;5057986;28;45324;-81
2022/03/12 04:32:22;;;;;;;;;5.50;5.25;;;;;7.10;100.00;101071.47;5059036;28;45424;-81
2022/03/12 04:34:47;;;;;;;;;11.50;4.75;;;;;7.08;100.00;101067.22;5063551;27;45447;-81
2022/03/12 04:37:13;;;;;;;;;2.75;2.75;;;;;7.04;100.00;101069.13;5065517;28;44741;-81
2022/03/12 04:39:39;;;;;;;;;6.75;6.75;;;;;7.01;100.00;101069.31;5063895;28;44804;-82
2022/03/12 04:42:05;;;;;;;;;5.50;4.00;;;;;6.98;100.00;101068.56;5064620;28;44849;-81
2022/03/12 04:44:30;;;;;;;;;5.25;4.75;;;;;6.95;100.00;101075.69;5064783;28;45253;-82
2022/03/12 04:46:56;;;;;;;;;6.00;4.25;;;;;6.92;100.00;101078.50;5071912;28;44856;-81
2022/03/12 04:49:21;;;;;;;;;4.00;4.00;;;;;6.88;100.00;101076.94;5059546;28;44800;-83
2022/03/12 04:51:47;;;;;;;;;5.50;4.75;;;;;6.84;100.00;101082.41;5039409;28;44828;-82
2022/03/12 04:54:12;;;;;;;;;8.00;6.25;;;;;6.82;100.00;101079.84;5072814;27;45394;-82
2022/03/12 04:56:38;;;;;;;;;6.75;5.00;;;;;6.79;100.00;101081.78;5078093;27;45390;-82
2022/03/12 04:59:03;;;;;;;;;4.00;4.00;;;;;6.76;100.00;101084.53;5078307;27;44724;-81
2022/03/12 05:01:30;;;;;;;;;4.00;4.00;;;;;6.73;100.00;101097.91;5081403;27;44900;-81
2022/03/12 05:03:55;;;;;;;;;5.75;4.75;;;;;6.69;100.00;101102.44;5079781;27;45339;-80
2022/03/12 05:06:24;;;;;;;;;6.00;4.00;;;;;6.69;100.00;101107.72;5079024;27;45458;-81
2022/03/12 05:08:49;;;;;;;;;6.00;5.25;;;;;6.68;100.00;101104.25;5076942;27;45258;-82
2022/03/12 05:11:15;;;;;;;;;4.50;4.50;;;;;6.69;100.00;101107.72;5084627;27;44801;-83
2022/03/12 05:13:40;;;;;;;;;4.00;4.00;;;;;6.69;100.00;101108.59;5080503;27;45496;-82
2022/03/12 05:16:06;;;;;;;;;5.00;5.00;;;;;6.68;100.00;101106.03;5069664;27;44784;-83
2022/03/12 05:18:36;;;;;;;;;4.75;3.75;;;;;6.66;100.00;101107.84;5062779;27;45315;-82
2022/03/12 05:21:03;;;;;;;;;6.25;5.00;;;;;6.65;100.00;101112.28;5060176;28;45557;-80
2022/03/12 05:23:29;;;;;;;;;6.75;5.25;;;;;6.63;100.00;101105.38;5059242;27;45507;-83
2022/03/12 05:25:55;;;;;;;;;7.00;5.25;;;;;6.61;100.00;101102.78;5057874;28;45351;-84
2022/03/12 05:28:29;;;;;;;;;7.75;5.00;;;;;6.58;100.00;101108.22;5057475;28;44835;-82
2022/03/12 05:30:57;;;;;;;;;5.00;4.00;;;;;6.58;100.00;101116.13;5063737;28;44701;-82
2022/03/12 05:33:24;;;;;;;;;4.00;4.00;;;;;6.56;100.00;101122.41;5062884;28;45498;-82
2022/03/12 05:35:54;;;;;;;;;4.00;4.00;;;;;6.54;100.00;101118.97;5057252;28;45482;-82
2022/03/12 05:38:20;;;;;;;;;5.00;4.00;;;;;6.54;100.00;101111.06;5057643;27;44686;-81
2022/03/12 05:40:48;;;;;;;;;5.50;4.75;;;;;6.57;100.00;101124.09;5056651;28;44761;-81
2022/03/12 05:43:16;;;;;;;;;7.75;4.25;;;;;6.61;100.00;101120.41;5056667;28;45352;-81
2022/03/12 05:45:45;;;;;;;;;6.00;5.00;;;;;6.62;100.00;101117.72;5058695;28;45475;-83
2022/03/12 05:48:12;;;;;;;;;5.25;5.25;;;;;6.63;100.00;101118.56;5077239;27;44853;-83
2022/03/12 05:50:39;;;;;;;;;5.25;5.25;;;;;6.64;100.00;101125.56;5077252;27;45347;-82
2022/03/12 05:53:10;;;;;;;;;7.25;5.25;;;;;6.67;100.00;101131.56;5075468;27;45536;-84
2022/03/12 05:55:40;;;;;;;;;10.25;4.75;;;;;6.69;100.00;101134.13;5076632;27;45391;-82
2022/03/12 05:58:07;;;;;;;;;5.50;5.50;;;;;6.73;100.00;101141.00;5077541;27;45391;-81
2022/03/12 06:00:34;;;;;;;;;4.00;4.00;;;;;6.77;100.00;101131.13;5077306;27;44951;-81
2022/03/12 06:03:01;;;;;;;;;6.00;6.00;;;;;6.80;100.00;101133.66;5079573;27;45275;-83
2022/03/12 06:05:27;;;;;;;;;10.25;6.00;;;;;6.82;100.00;101140.59;5078758;27;45330;-82
2022/03/12 06:07:55;;;;;;;;;13.25;6.75;;;;;6.81;100.00;101149.41;5081308;27;44788;-82
2022/03/12 06:10:23;;;;;;;;;9.00;7.25;;;;;6.82;100.00;101142.38;5077156;27;44815;-82
2022/03/12 06:12:53;;;;;;;;;9.75;7.50;;;;;6.81;100.00;101146.78;5075586;27;47112;-84
2022/03/12 06:15:21;;;;;;;;;10.00;6.00;;;;;6.85;100.00;101155.41;5073644;27;45615;-83
2022/03/12 06:17:49;;;;;;;;;5.50;5.00;;;;;6.89;100.00;101152.56;5067896;28;44699;-82
2022/03/12 06:20:16;;;;;;;;;3.25;3.25;;;;;6.95;100.00;101154.06;5064713;28;44797;-82
2022/03/12 06:22:43;;;;;;;;;6.00;5.00;;;;;6.97;100.00;101165.44;5069500;28;45359;-82
2022/03/12 06:25:11;;;;;;;;;6.25;6.25;;;;;7.00;100.00;101164.44;5068468;28;45375;-82
2022/03/12 06:27:37;;;;;;;;;7.50;5.00;;;;;7.05;100.00;101162.44;5061514;28;45313;-84
2022/03/12 06:30:08;;;;;;;;;5.00;4.00;;;;;7.10;100.00;101166.59;5064913;28;44764;-84
2022/03/12 06:32:36;;;;;;;;;6.25;4.00;;;;;7.16;100.00;101166.34;5063319;28;45571;-83
2022/03/12 06:35:02;;;;;;;;;5.00;3.25;;;;;7.17;100.00;101178.59;5058048;28;44802;-81
2022/03/12 06:37:28;;;;;;;;;6.25;4.25;;;;;7.20;100.00;101167.03;5056993;28;45174;-84
2022/03/12 06:39:55;;;;;;;;;3.75;3.75;;;;;7.24;100.00;101173.88;5057529;28;45225;-86
2022/03/12 06:42:23;;;;;;;;;9.50;3.75;;;;;7.23;100.00;101169.53;5057753;28;45136;-86
2022/03/12 06:44:51;;;;;;;;;2.50;2.50;;;;;7.22;100.00;101165.19;5066772;27;44763;-86
2022/03/12 06:47:18;;;;;;;;;3.00;3.00;;;;;7.22;100.00;101179.25;5069864;28;45584;-85
2022/03/12 06:49:44;;;;;;;;;5.50;5.25;;;;;7.23;100.00;101185.38;5076284;28;45018;-86
2022/03/12 06:52:09;;;;;;;;;7.00;7.00;;;;;7.26;100.00;101202.91;5079095;27;45417;-85
2022/03/12 06:54:35;;;;;;;;;17.00;15.25;;;;;7.24;100.00;101191.53;5078321;27;44823;-85
2022/03/12 06:57:03;;;;;;;;;27.33;27.00;;;;;7.26;100.00;101200.25;5084146;28;45359;-86
2022/03/12 06:59:29;;;;;;;;;44.33;33.33;;;;;7.27;100.00;101209.91;5083287;27;44855;-85
2022/03/12 07:01:54;;;;;;;;;58.67;42.33;;;;;7.30;100.00;101205.34;5084602;27;45662;-85
2022/03/12 07:04:21;;;;;;;;;9.25;9.25;;;;;7.34;100.00;101198.97;5083759;27;44747;-86
2022/03/12 07:06:47;;;;;;;;;9.00;7.00;;;;;7.42;100.00;101220.63;5082624;27;44650;-83
2022/03/12 07:09:13;;;;;;;;;14.25;11.75;;;;;7.50;100.00;101211.50;5078530;27;44862;-85
2022/03/12 07:11:41;;;;;;;;;14.75;12.50;;;;;7.53;100.00;101213.97;5077729;27;45222;-86
2022/03/12 07:14:06;;;;;;;;;12.50;10.75;;;;;7.60;100.00;101212.78;5073538;27;44918;-85
2022/03/12 07:16:32;;;;;;;;;12.50;9.50;;;;;7.64;100.00;101216.97;5070272;28;45004;-86
2022/03/12 07:18:57;;;;;;;;;6.00;5.00;;;;;7.70;100.00;101219.34;5079844;27;45549;-84
2022/03/12 07:21:24;;;;;;;;;8.75;5.25;;;;;7.75;100.00;101217.34;5077960;27;45286;-86
2022/03/12 07:23:49;;;;;;;;;6.00;4.25;;;;;7.81;100.00;101219.69;5058229;28;45408;-86
2022/03/12 07:26:20;;;;;;;;;8.00;5.00;;;;;7.87;100.00;101218.53;5062886;28;44794;-84
2022/03/12 07:28:46;;;;;;;;;4.50;3.00;;;;;7.96;100.00;101215.44;5059479;28;44942;-86
2022/03/12 07:31:44;;;;;;;;;8.00;4.25;;;;;8.09;100.00;101221.00;5060995;28;45304;-85
2022/03/12 07:34:10;;;;;;;;;6.75;5.50;;;;;8.19;100.00;101227.56;5061413;28;45473;-86
2022/03/12 07:36:36;;;;;;;;;6.00;6.00;;;;;8.28;100.00;101220.97;5064396;28;44820;-85
2022/03/12 07:39:03;;;;;;;;;7.25;4.00;;;;;8.38;100.00;101223.09;5061210;28;45244;-86
2022/03/12 07:41:30;;;;;;;;;7.50;5.00;;;;;8.49;100.00;101222.56;5062101;27;45260;-85
2022/03/12 07:43:55;;;;;;;;;5.40;5.40;;;;;8.58;100.00;101211.50;5043260;28;45213;-88
2022/03/12 07:46:21;;;;;;;;;7.00;6.00;;;;;8.68;100.00;101211.88;5066917;27;44836;-87
2022/03/12 07:48:47;;;;;;;;;5.50;5.50;;;;;8.74;100.00;101201.81;5059289;28;45255;-85
2022/03/12 07:51:13;;;;;;;;;5.50;5.50;;;;;8.83;100.00;101207.56;5060306;28;45155;-87
2022/03/12 07:53:39;;;;;;;;;6.75;5.00;;;;;8.85;100.00;101203.94;5061023;28;44808;-87
2022/03/12 07:56:06;;;;;;;;;10.00;6.00;;;;;8.91;100.00;101206.25;5061199;28;44824;-87
2022/03/12 07:58:31;;;;;;;;;8.00;6.00;;;;;8.95;100.00;101207.81;5068113;28;45332;-87
2022/03/12 08:00:59;;;;;;;;;9.75;7.25;;;;;8.99;100.00;101212.00;5086946;27;45065;-87
2022/03/12 08:03:25;;;;;;;;;6.20;6.20;;;;;9.02;100.00;101230.38;5091508;27;44720;-87
2022/03/12 08:05:51;;;;;;;;;5.00;5.00;;;;;9.02;100.00;101235.69;5094537;27;44791;-87
2022/03/12 08:08:17;;;;;;;;;7.50;6.00;;;;;9.02;100.00;101242.78;5092332;27;44951;-87
2022/03/12 08:13:27;;;;;;;;;5.60;4.20;;;;;8.99;100.00;101258.81;5072867;28;45315;-85
2022/03/12 08:15:53;;;;;;;;;5.75;5.00;;;;;9.00;100.00;101266.72;5061253;27;45409;-86
2022/03/12 08:18:21;;;;;;;;;4.50;4.50;;;;;9.05;100.00;101271.78;5062395;28;44828;-85
2022/03/12 08:20:48;;;;;;;;;6.00;3.00;;;;;9.03;100.00;101270.97;5059639;28;46294;-86
2022/03/12 08:23:14;;;;;;;;;4.80;4.00;;;;;9.01;100.00;101272.88;5063256;28;45162;-85
2022/03/12 08:25:39;;;;;;;;;5.75;5.75;;;;;9.02;100.00;101266.63;5063284;28;45317;-85
2022/03/12 08:28:05;;;;;;;;;5.50;5.50;;;;;9.05;100.00;101274.44;5060314;28;44871;-86
2022/03/12 08:30:30;;;;;;;;;6.50;5.50;;;;;9.12;100.00;101275.81;5059352;28;45240;-86
2022/03/12 08:32:56;;;;;;;;;5.25;5.00;;;;;9.17;100.00;101281.72;5060860;28;44804;-85
2022/03/12 08:35:21;;;;;;;;;6.75;6.00;;;;;9.27;100.00;101280.31;5059668;27;45049;-86
2022/03/12 08:37:47;;;;;;;;;8.25;6.50;;;;;9.35;100.00;101285.22;5062562;28;44868;-85
2022/03/12 08:40:14;;;;;;;;;5.00;5.00;;;;;9.43;100.00;101284.81;5066033;28;45327;-85
2022/03/12 08:42:39;;;;;;;;;3.80;3.20;;;;;9.43;100.00;101285.66;5069860;28;44748;-84
2022/03/12 08:45:07;;;;;;;;;3.75;3.75;;;;;9.46;100.00;101287.28;5071805;28;44696;-83
2022/03/12 08:47:34;;;;;;;;;5.50;5.00;;;;;9.45;100.00;101278.47;5066688;28;44819;-82
2022/03/12 08:50:00;;;;;;;;;5.00;5.00;;;;;9.51;100.00;101282.59;5070249;28;45328;-85
2022/03/12 08:52:26;;;;;;;;;4.50;4.25;;;;;9.57;100.00;101292.00;5074725;28;44632;-84
2022/03/12 08:54:53;;;;;;;;;8.00;6.25;;;;;9.60;100.00;101275.94;5090659;28;45409;-84
2022/03/12 08:57:18;;;;;;;;;9.50;6.25;;;;;9.67;100.00;101272.00;5084638;27;44891;-86
2022/03/12 08:59:44;;;;;;;;;4.25;4.25;;;;;9.74;100.00;101273.38;5070433;27;44933;-83
2022/03/12 09:02:10;;;;;;;;;9.75;7.00;;;;;9.80;100.00;101275.69;5069323;28;45137;-85
2022/03/12 09:04:37;;;;;;;;;5.50;5.50;;;;;9.86;100.00;101279.81;5073515;27;44751;-85
2022/03/12 09:07:02;;;;;;;;;12.25;8.50;;;;;9.92;100.00;101280.34;5078275;28;44817;-86
2022/03/12 09:09:28;;;;;;;;;9.40;5.60;;;;;9.95;100.00;101272.19;5077922;28;45444;-86
2022/03/12 09:11:54;;;;;;;;;6.50;5.50;;;;;10.05;100.00;101264.56;5077084;28;44598;-86
2022/03/12 09:14:20;;;;;;;;;5.50;4.75;;;;;10.13;100.00;101265.00;5073356;28;44695;-86
2022/03/12 09:16:45;;;;;;;;;9.25;7.50;;;;;10.23;100.00;101278.63;5075326;28;44907;-85
2022/03/12 09:19:11;;;;;;;;;13.50;7.75;;;;;10.28;100.00;101271.28;5076908;28;47093;-84
2022/03/12 09:21:37;;;;;;;;;10.25;10.25;;;;;10.33;100.00;101268.34;5074185;28;44707;-84
2022/03/12 09:24:03;;;;;;;;;10.00;10.00;;;;;10.34;100.00;101272.72;5057948;28;44793;-86
2022/03/12 09:26:29;;;;;;;;;8.75;8.25;;;;;10.36;100.00;101260.22;5075268;28;44742;-87
2022/03/12 09:28:54;;;;;;;;;8.50;7.50;;;;;10.44;100.00;101263.28;5074776;28;45331;-86
2022/03/12 09:31:20;;;;;;;;;8.25;8.25;;;;;10.51;100.00;101260.19;5068214;28;44739;-87
2022/03/12 09:33:46;;;;;;;;;10.00;8.25;;;;;10.53;100.00;101263.59;5064035;28;45324;-84
2022/03/12 09:36:11;;;;;;;;;9.75;8.00;;;;;10.58;100.00;101265.97;5061847;28;44937;-85
2022/03/12 09:38:37;;;;;;;;;9.50;9.25;;;;;10.63;100.00;101265.72;5077276;27;45215;-86
2022/03/12 09:41:03;;;;;;;;;10.00;9.20;;;;;10.71;100.00;101269.63;5079789;28;45247;-86
2022/03/12 09:43:29;;;;;;;;;7.00;7.00;;;;;10.77;100.00;101271.06;5081121;28;44745;-85
2022/03/12 09:45:56;;;;;;;;;11.25;9.00;;;;;10.85;100.00;101268.81;5078072;28;44812;-86
2022/03/12 09:48:22;;;;;;;;;12.50;9.25;;;;;10.94;100.00;101268.28;5058927;28;46908;-87
2022/03/12 09:50:48;;;;;;;;;10.75;9.25;;;;;11.05;100.00;101246.34;5065595;28;44720;-85
2022/03/12 09:53:14;;;;;;;;;12.75;10.00;;;;;11.22;100.00;101250.66;5074361;27;44998;-87
2022/03/12 09:55:40;;;;;;;;;11.00;11.00;;;;;11.31;100.00;101248.28;5085874;27;44950;-84
2022/03/12 09:58:06;;;;;;;;;10.75;10.75;;;;;11.44;100.00;101248.38;5065279;27;45173;-84
2022/03/12 10:00:31;;;;;;;;;10.60;9.20;;;;;11.54;100.00;101232.69;5057120;28;44737;-85
2022/03/12 10:02:58;;;;;;;;;14.25;13.25;;;;;11.68;100.00;101239.78;5062324;28;45451;-85
2022/03/12 10:05:24;;;;;;;;;8.75;8.50;;;;;11.77;100.00;101242.72;5071329;28;44715;-85
2022/03/12 10:07:49;;;;;;;;;4.75;4.75;;;;;11.87;100.00;101245.69;5071304;28;45057;-85
2022/03/12 10:10:17;;;;;;;;;8.50;6.25;;;;;11.97;100.00;101252.13;5061461;28;44776;-83
2022/03/12 10:12:47;;;;;;;;;7.20;7.20;;;;;12.08;100.00;101257.59;5061043;28;44773;-84
2022/03/12 10:15:15;;;;;;;;;8.00;8.00;;;;;12.12;100.00;101244.09;5073385;27;44830;-85
2022/03/12 10:17:41;;;;;;;;;11.50;8.00;;;;;12.14;100.00;101235.06;5073792;28;46609;-84
2022/03/12 10:20:10;;;;;;;;;9.40;9.40;;;;;12.27;100.00;101237.75;5058689;28;45269;-85
2022/03/12 10:22:36;;;;;;;;;8.40;8.00;;;;;12.33;100.00;101235.56;5061163;28;44724;-86
2022/03/12 10:25:02;;;;;;;;;8.75;6.75;;;;;12.32;100.00;101232.97;5059978;28;45166;-85
2022/03/12 10:27:27;;;;;;;;;11.50;7.75;;;;;12.32;100.00;101239.16;5060254;28;45161;-85
2022/03/12 10:29:53;;;;;;;;;6.75;6.00;;;;;12.32;100.00;101241.81;5058776;27;45259;-85
2022/03/12 10:32:31;;;;;;;;;8.20;7.80;;;;;12.37;100.00;101232.66;5059495;28;45230;-85
2022/03/12 10:35:01;;;;;;;;;12.00;10.75;;;;;12.31;100.00;101242.78;5058014;28;44706;-86
2022/03/12 10:37:28;;;;;;;;;8.00;7.00;;;;;12.31;100.00;101247.25;5062879;28;45158;-86
2022/03/12 10:40:20;;;;;;;;;7.40;6.60;;;;;12.38;100.00;101239.69;5064788;28;44698;-84
2022/03/12 10:42:56;;;;;;;;;13.40;13.00;;;;;12.49;100.00;101234.53;5068961;28;44860;-84
2022/03/12 10:45:28;;;;;;;;;11.50;10.25;;;;;12.49;100.00;101232.72;5087344;27;44863;-84
2022/03/12 10:47:56;;;;;;;;;8.40;8.40;;;;;12.45;100.00;101236.53;5078723;28;45182;-84
2022/03/12 10:50:27;;;;;;;;;11.60;9.40;;;;;12.47;100.00;101225.78;5079525;27;45279;-86
2022/03/12 10:52:58;;;;;;;;;12.80;7.20;;;;;12.54;100.00;101227.94;5086522;27;44778;-86
2022/03/12 10:55:33;;;;;;;;;12.50;9.50;;;;;12.59;100.00;101225.81;5082827;27;45250;-85
2022/03/12 10:58:00;;;;;;;;;9.40;9.20;;;;;12.60;100.00;101222.19;5080749;27;46544;-85
2022/03/12 11:00:28;;;;;;;;;9.20;7.40;;;;;12.45;100.00;101220.56;5082656;27;45276;-85
2022/03/12 11:03:00;;;;;;;;;5.00;5.00;;;;;12.43;100.00;101216.31;5083855;27;45309;-86
2022/03/12 11:05:34;;;;;;;;;13.25;8.75;;;;;12.41;100.00;101219.03;5088532;28;45281;-86
2022/03/12 11:08:19;;;;;;;;;10.20;8.20;;;;;12.48;100.00;101219.50;5088106;27;45240;-84
2022/03/12 11:11:15;;;;;;;;;9.80;7.80;;;;;12.58;100.00;101213.44;5085317;27;44959;-85
2022/03/12 11:13:47;;;;;;;;;6.80;6.80;;;;;12.60;100.00;101214.19;5084603;27;44990;-84
2022/03/12 11:16:34;;;;;;;;;6.25;6.25;;;;;12.58;100.00;101205.44;5080975;27;44809;-84
2022/03/12 11:19:12;;;;;;;;;9.00;7.50;;;;;12.61;100.00;101201.72;5089261;27;45148;-84
2022/03/12 11:21:52;;;;;;;;;8.60;7.40;;;;;12.65;100.00;101197.88;5088522;27;44811;-84
2022/03/12 11:24:27;;;;;;;;;8.60;6.40;;;;;12.59;100.00;101204.50;5084725;28;45368;-86
2022/03/12 11:27:01;;;;;;;;;9.40;6.20;;;;;12.63;100.00;101196.28;5077589;27;44819;-86